Time;durP1;ratioP1;P1;durP2;ratioP2;P2;SDS_P1;SDS_P2;PMS_P1;PMS_P2;Temp;Humidity;BMP_temperature;BMP_pressure;BME280_temperature;BME280_humidity;BME280_pressure;Samples;Min_cycle;Max_cycle;Signal;HPM_P1;HPM_P2
2023/10/09 04:00:51;;;;;;;1.60;1.60;;;10.40;99.90;;;;;;5730315;23;20236;-72
2023/10/09 04:03:20;;;;;;;2.70;2.50;;;10.30;99.90;;;;;;4953752;28;20233;-70
2023/10/09 04:05:46;;;;;;;4.65;2.65;;;10.30;99.90;;;;;;4954099;28;20209;-70
2023/10/09 04:08:19;;;;;;;2.95;2.30;;;10.30;99.90;;;;;;4954100;28;20220;-70
2023/10/09 04:11:01;;;;;;;1.80;1.75;;;10.30;99.90;;;;;;4953865;28;20240;-70
2023/10/09 04:13:33;;;;;;;2.30;2.20;;;10.30;99.90;;;;;;4953056;28;20220;-70
2023/10/09 04:16:09;;;;;;;2.05;2.05;;;10.30;99.90;;;;;;4953798;28;20676;-69
2023/10/09 04:18:38;;;;;;;2.30;2.20;;;10.30;99.90;;;;;;4954196;28;20287;-72
2023/10/09 04:21:18;;;;;;;2.35;2.15;;;10.30;99.90;;;;;;4953599;28;20727;-71
2023/10/09 04:24:09;;;;;;;3.30;2.10;;;10.30;99.90;;;;;;4953849;28;20332;-71
2023/10/09 04:26:37;;;;;;;2.58;2.47;;;10.30;99.90;;;;;;4953814;28;20244;-71
2023/10/09 04:29:05;;;;;;;2.42;2.30;;;10.30;99.90;;;;;;4946660;28;20237;-71
2023/10/09 04:31:34;;;;;;;3.70;2.35;;;10.20;99.90;;;;;;4945513;29;20678;-71
2023/10/09 04:36:49;;;;;;;2.20;2.10;;;10.20;99.90;;;;;;4942635;29;20674;-72
2023/10/09 04:39:34;;;;;;;2.78;2.67;;;10.20;99.90;;;;;;4951395;29;20212;-71
2023/10/09 04:47:49;;;;;;;4.72;2.25;;;10.20;99.90;;;;;;4942642;29;20610;-72
2023/10/09 04:50:36;;;;;;;2.17;2.08;;;10.20;99.90;;;;;;4951241;28;20209;-71
2023/10/09 04:53:22;;;;;;;2.47;1.75;;;10.20;99.90;;;;;;4945717;28;20216;-72
2023/10/09 04:55:55;;;;;;;3.45;2.33;;;10.20;99.90;;;;;;4942709;29;20209;-72
2023/10/09 04:58:25;;;;;;;2.03;1.92;;;10.20;99.90;;;;;;4944797;29;20220;-71
2023/10/09 05:01:04;;;;;;;2.08;1.98;;;10.20;99.90;;;;;;4945639;28;20300;-71
2023/10/09 05:03:43;;;;;;;3.60;2.08;;;10.20;99.90;;;;;;4942701;28;20505;-72
2023/10/09 05:06:42;;;;;;;2.55;2.25;;;10.10;99.90;;;;;;4942652;29;20218;-72
2023/10/09 05:09:13;;;;;;;8.45;2.35;;;10.20;99.90;;;;;;4945415;28;20218;-71
2023/10/09 05:12:09;;;;;;;2.22;1.80;;;10.20;99.90;;;;;;4945492;28;20229;-71
2023/10/09 05:14:54;;;;;;;1.38;1.10;;;10.20;99.90;;;;;;4946075;29;20288;-71
2023/10/09 05:17:25;;;;;;;1.85;1.77;;;10.20;99.90;;;;;;4943835;28;20743;-72
2023/10/09 05:20:00;;;;;;;1.67;1.67;;;10.20;99.90;;;;;;4942586;29;20211;-72
2023/10/09 05:22:36;;;;;;;2.10;2.00;;;10.20;99.90;;;;;;4944609;28;20241;-72
2023/10/09 05:25:02;;;;;;;1.48;1.35;;;10.20;99.90;;;;;;4946347;28;20672;-71
2023/10/09 05:27:50;;;;;;;1.98;1.88;;;10.20;99.90;;;;;;4946059;28;20213;-71
2023/10/09 05:30:25;;;;;;;1.50;1.40;;;10.10;99.90;;;;;;4946807;28;20300;-71
2023/10/09 05:32:59;;;;;;;1.85;1.75;;;10.10;99.90;;;;;;4957102;28;20582;-72
2023/10/09 05:35:39;;;;;;;2.13;1.83;;;10.10;99.90;;;;;;4946631;28;20596;-71
2023/10/09 05:38:23;;;;;;;3.00;1.80;;;10.20;99.90;;;;;;4945542;29;20209;-72
2023/10/09 05:40:53;;;;;;;4.13;1.50;;;10.10;99.90;;;;;;4945952;29;20775;-71
2023/10/09 05:46:15;;;;;;;1.50;1.10;;;10.10;99.90;;;;;;4956262;29;20210;-72
2023/10/09 05:48:54;;;;;;;4.95;1.52;;;10.10;99.90;;;;;;4949792;29;20235;-72
2023/10/09 05:54:23;;;;;;;2.92;2.58;;;10.10;99.90;;;;;;4945184;29;20682;-71
2023/10/09 06:05:04;;;;;;;1.70;1.70;;;10.10;99.90;;;;;;4947782;29;20228;-72
2023/10/09 06:08:04;;;;;;;3.17;3.00;;;10.10;99.90;;;;;;4948235;28;20709;-71
2023/10/09 06:10:39;;;;;;;1.40;1.30;;;10.00;99.90;;;;;;4953429;29;20296;-71
2023/10/09 06:13:06;;;;;;;2.00;1.90;;;9.90;99.90;;;;;;4944978;29;20672;-71
2023/10/09 06:18:32;;;;;;;1.20;1.13;;;10.00;99.90;;;;;;4953034;29;20208;-71
2023/10/09 06:21:33;;;;;;;3.83;2.58;;;10.00;99.90;;;;;;4949291;28;20493;-72
2023/10/09 06:24:14;;;;;;;1.25;1.25;;;9.90;99.90;;;;;;4949179;29;20226;-71
2023/10/09 06:26:51;;;;;;;3.63;1.83;;;10.00;99.90;;;;;;4951746;28;20224;-71
2023/10/09 06:29:33;;;;;;;2.10;2.00;;;9.90;99.90;;;;;;4945935;29;20232;-71
2023/10/09 06:32:16;;;;;;;4.68;1.98;;;10.00;99.90;;;;;;4947849;28;20292;-72
2023/10/09 06:34:45;;;;;;;1.80;1.70;;;10.00;99.90;;;;;;4944414;29;20217;-72
2023/10/09 06:37:34;;;;;;;4.38;2.30;;;10.00;99.90;;;;;;4944078;28;20575;-71
2023/10/09 06:41:23;;;;;;;2.15;2.05;;;10.00;99.90;;;;;;4947844;28;20300;-72
2023/10/09 06:43:15;;;;;;;2.55;2.35;;;10.00;99.90;;;;;;4944202;29;20244;-71
2023/10/09 06:45:44;;;;;;;2.28;2.17;;;10.10;99.90;;;;;;4947486;28;20233;-71
2023/10/09 06:51:03;;;;;;;2.47;2.28;;;10.00;99.90;;;;;;4943868;29;20226;-72
2023/10/09 06:56:23;;;;;;;2.33;2.15;;;10.00;99.90;;;;;;4946772;28;20303;-72
2023/10/09 06:58:48;;;;;;;2.72;2.63;;;10.00;99.90;;;;;;4944129;29;20205;-71
2023/10/09 07:01:28;;;;;;;3.37;2.80;;;10.00;99.90;;;;;;4944757;29;20741;-71
2023/10/09 07:03:59;;;;;;;1.90;1.80;;;10.10;99.90;;;;;;4949178;28;20496;-72
2023/10/09 07:09:18;;;;;;;2.83;2.63;;;10.10;99.90;;;;;;4947241;29;20232;-72
2023/10/09 07:12:09;;;;;;;3.28;2.60;;;10.10;99.90;;;;;;4948724;28;20244;-71
2023/10/09 07:17:43;;;;;;;2.80;2.60;;;10.10;99.90;;;;;;4947108;29;20212;-72
2023/10/09 07:20:13;;;;;;;3.08;2.85;;;10.20;99.90;;;;;;4946923;28;20210;-71
2023/10/09 07:22:52;;;;;;;3.25;2.65;;;10.10;99.90;;;;;;4954918;28;20249;-71
2023/10/09 07:25:40;;;;;;;4.35;3.15;;;10.10;99.90;;;;;;4945383;28;20232;-71
2023/10/09 07:28:28;;;;;;;4.93;3.13;;;10.10;99.90;;;;;;4943631;29;20214;-72
2023/10/09 07:30:58;;;;;;;2.80;2.63;;;10.20;99.90;;;;;;4943377;29;20324;-71
2023/10/09 07:33:33;;;;;;;3.25;3.05;;;10.10;99.90;;;;;;4953686;29;20213;-72
2023/10/09 07:36:06;;;;;;;3.47;3.20;;;10.10;99.90;;;;;;4946730;28;20264;-71
2023/10/09 07:38:35;;;;;;;3.55;3.10;;;10.10;99.90;;;;;;4943531;28;20612;-72
2023/10/09 07:43:46;;;;;;;2.63;2.53;;;10.30;99.90;;;;;;4948191;29;20213;-71
2023/10/09 07:49:00;;;;;;;2.97;2.88;;;10.30;99.90;;;;;;4949121;28;20213;-71
2023/10/09 07:51:31;;;;;;;2.75;2.55;;;10.30;99.90;;;;;;4946281;28;20586;-71
2023/10/09 07:54:06;;;;;;;2.92;2.83;;;10.40;99.90;;;;;;4946494;28;20201;-71
2023/10/09 07:56:38;;;;;;;3.15;2.80;;;10.40;99.90;;;;;;4943134;28;20241;-71
2023/10/09 07:59:10;;;;;;;3.10;2.90;;;10.40;99.90;;;;;;4943017;29;20241;-71
2023/10/09 08:01:38;;;;;;;2.90;2.80;;;10.40;99.90;;;;;;4950394;28;20246;-71
2023/10/09 08:04:10;;;;;;;3.55;3.30;;;10.40;99.90;;;;;;4949996;29;20641;-71
2023/10/09 08:06:42;;;;;;;3.42;2.72;;;10.50;99.90;;;;;;4943200;29;20217;-70
2023/10/09 08:09:47;;;;;;;3.72;3.42;;;10.50;99.90;;;;;;4943077;29;20221;-71
2023/10/09 08:12:38;;;;;;;3.67;3.42;;;10.50;99.90;;;;;;4950222;29;20233;-71
2023/10/09 08:17:50;;;;;;;3.85;3.53;;;10.50;99.90;;;;;;4949403;29;20228;-71
2023/10/09 08:20:17;;;;;;;2.90;2.67;;;10.60;99.90;;;;;;4943909;28;20217;-71
2023/10/09 08:22:50;;;;;;;3.80;3.10;;;10.60;99.90;;;;;;4945977;28;20205;-71
2023/10/09 08:25:27;;;;;;;3.40;3.10;;;10.60;99.90;;;;;;4945074;28;20577;-71
2023/10/09 08:27:56;;;;;;;3.17;2.97;;;10.60;99.90;;;;;;4948958;29;20213;-71
2023/10/09 08:30:49;;;;;;;2.50;2.40;;;10.60;99.90;;;;;;4946223;28;20209;-70
2023/10/09 08:36:04;;;;;;;3.28;3.05;;;10.70;99.90;;;;;;4942526;29;20205;-71
2023/10/09 08:38:33;;;;;;;4.00;3.70;;;10.70;99.90;;;;;;4945665;29;20213;-71
2023/10/09 08:41:15;;;;;;;3.95;3.60;;;10.70;99.90;;;;;;4953749;28;20630;-71
2023/10/09 08:43:50;;;;;;;4.32;3.80;;;10.80;99.90;;;;;;4946866;29;20324;-71
2023/10/09 08:46:20;;;;;;;3.40;3.20;;;10.80;99.90;;;;;;4944779;28;20205;-71
2023/10/09 08:48:48;;;;;;;3.58;3.38;;;10.80;99.90;;;;;;4942652;29;20217;-71
2023/10/09 08:51:16;;;;;;;3.88;3.58;;;10.80;99.90;;;;;;4943093;29;20244;-71
2023/10/09 08:53:45;;;;;;;3.97;3.67;;;10.80;99.90;;;;;;4945854;28;20212;-71
2023/10/09 08:56:14;;;;;;;4.75;4.45;;;10.80;99.90;;;;;;4944904;28;20213;-71
2023/10/09 08:58:41;;;;;;;5.55;5.05;;;10.90;99.90;;;;;;4942560;29;20220;-71
2023/10/09 09:01:08;;;;;;;4.25;3.90;;;10.90;99.90;;;;;;4945105;29;20241;-71
2023/10/09 09:03:44;;;;;;;4.20;3.80;;;10.90;99.90;;;;;;4949678;29;20209;-71
2023/10/09 09:06:11;;;;;;;5.13;4.20;;;11.00;99.90;;;;;;4948964;28;20324;-71
2023/10/09 09:08:40;;;;;;;4.22;3.90;;;11.00;99.90;;;;;;4945976;29;20234;-71
2023/10/09 09:11:14;;;;;;;4.93;4.40;;;11.00;99.90;;;;;;4953870;28;20237;-71
2023/10/09 09:13:42;;;;;;;4.63;4.22;;;11.10;99.90;;;;;;4946136;29;20268;-70
2023/10/09 09:16:18;;;;;;;5.30;4.80;;;11.10;99.90;;;;;;4945888;29;20256;-71
2023/10/09 09:19:00;;;;;;;11.57;10.30;;;11.00;99.90;;;;;;4945906;29;20592;-71
2023/10/09 09:21:27;;;;;;;15.45;13.82;;;11.00;99.90;;;;;;4948073;29;20233;-71
2023/10/09 09:23:55;;;;;;;9.65;8.85;;;11.00;99.90;;;;;;4948817;28;20204;-70
2023/10/09 09:26:37;;;;;;;14.30;11.48;;;11.10;99.90;;;;;;4947288;28;20267;-71
2023/10/09 09:29:05;;;;;;;68.68;41.45;;;11.10;99.90;;;;;;4952963;29;20220;-71
2023/10/09 09:31:37;;;;;;;7.50;6.70;;;11.10;99.90;;;;;;4945681;28;20230;-71
2023/10/09 09:34:13;;;;;;;8.30;6.97;;;11.10;99.90;;;;;;4953054;29;20448;-71
2023/10/09 09:36:54;;;;;;;5.60;5.10;;;11.20;99.90;;;;;;4949861;29;20213;-71
2023/10/09 09:39:27;;;;;;;8.10;6.05;;;11.20;99.90;;;;;;4947995;28;20213;-71
2023/10/09 09:42:07;;;;;;;7.90;7.07;;;11.20;99.90;;;;;;4949243;28;20344;-70
2023/10/09 09:44:43;;;;;;;6.25;5.65;;;11.20;99.90;;;;;;4953095;29;20236;-71
2023/10/09 09:47:13;;;;;;;5.40;4.25;;;11.20;99.90;;;;;;4953992;28;20208;-72
2023/10/09 09:49:43;;;;;;;10.32;8.50;;;11.30;99.90;;;;;;4952235;29;20715;-73
2023/10/09 09:52:11;;;;;;;12.35;11.05;;;11.30;99.90;;;;;;4948240;28;20289;-71
2023/10/09 09:54:38;;;;;;;5.00;4.50;;;11.30;99.90;;;;;;4955510;28;20205;-72
2023/10/09 09:57:10;;;;;;;10.18;9.10;;;11.30;99.90;;;;;;4951090;28;20679;-73
2023/10/09 09:59:49;;;;;;;9.40;8.32;;;11.30;99.90;;;;;;4946227;29;20576;-72
2023/10/09 10:02:22;;;;;;;7.13;6.18;;;11.30;99.90;;;;;;4945868;28;20237;-72
2023/10/09 10:04:56;;;;;;;6.88;6.38;;;11.40;99.90;;;;;;4956134;28;20237;-73
2023/10/09 10:07:25;;;;;;;6.05;5.43;;;11.40;99.90;;;;;;4954519;28;20213;-73
2023/10/09 10:09:54;;;;;;;4.83;4.10;;;11.40;99.90;;;;;;4945396;29;20218;-72
2023/10/09 10:12:59;;;;;;;5.77;4.47;;;11.40;99.90;;;;;;4946209;28;20477;-72
2023/10/09 10:16:00;;;;;;;5.60;5.10;;;11.40;99.90;;;;;;4945690;28;20459;-73
2023/10/09 10:18:32;;;;;;;6.25;4.90;;;11.50;99.90;;;;;;4963128;23;20241;-71
2023/10/09 10:21:17;;;;;;;5.07;4.50;;;11.50;99.90;;;;;;4937561;29;20297;-72
2023/10/09 10:23:47;;;;;;;4.60;4.07;;;11.50;99.90;;;;;;4938435;29;20898;-72
2023/10/09 10:26:20;;;;;;;4.20;3.80;;;11.60;99.90;;;;;;4937907;29;20512;-72
2023/10/09 10:29:22;;;;;;;6.30;4.83;;;11.50;99.90;;;;;;4937653;29;21014;-72
2023/10/09 10:31:56;;;;;;;5.43;4.70;;;11.60;99.90;;;;;;4937455;29;20461;-73
2023/10/09 10:34:24;;;;;;;13.50;12.25;;;11.60;99.90;;;;;;4938164;29;20476;-73
2023/10/09 10:36:58;;;;;;;3.28;3.08;;;11.60;99.90;;;;;;4938082;29;20221;-73
2023/10/09 10:39:42;;;;;;;4.10;3.80;;;11.60;99.90;;;;;;4938888;29;20218;-73
2023/10/09 10:42:14;;;;;;;4.00;3.70;;;11.60;99.90;;;;;;4937681;29;20480;-73
2023/10/09 10:44:44;;;;;;;5.70;4.77;;;11.60;99.90;;;;;;4939676;29;20461;-73
2023/10/09 10:49:58;;;;;;;3.47;3.27;;;11.70;99.90;;;;;;4939477;29;20509;-73
2023/10/09 10:52:41;;;;;;;3.13;3.03;;;11.70;99.90;;;;;;4939931;29;20470;-73
2023/10/09 10:55:17;;;;;;;4.53;2.97;;;11.80;99.90;;;;;;4938031;29;20849;-73
2023/10/09 10:58:00;;;;;;;4.00;3.47;;;11.80;99.90;;;;;;4939244;29;21008;-73
2023/10/09 11:03:23;;;;;;;2.80;2.70;;;11.80;99.90;;;;;;4938059;29;20455;-73
2023/10/09 11:05:51;;;;;;;4.20;4.00;;;11.80;99.90;;;;;;4940214;29;20493;-73
2023/10/09 11:08:27;;;;;;;2.90;2.80;;;11.90;99.90;;;;;;4943226;29;20500;-73
2023/10/09 11:10:54;;;;;;;3.57;3.37;;;11.90;99.90;;;;;;4943078;29;20874;-73
2023/10/09 11:13:34;;;;;;;2.60;2.50;;;12.00;99.90;;;;;;4942252;29;20469;-73
2023/10/09 11:16:28;;;;;;;2.33;2.33;;;12.00;99.90;;;;;;4940386;29;20487;-73
2023/10/09 11:18:57;;;;;;;2.93;2.73;;;12.10;99.90;;;;;;4932043;29;20499;-73
2023/10/09 11:21:31;;;;;;;1.93;1.80;;;12.20;99.90;;;;;;4938711;29;20507;-73
2023/10/09 11:24:24;;;;;;;2.37;2.17;;;12.20;99.90;;;;;;4937361;29;20465;-73
2023/10/09 11:26:54;;;;;;;3.60;1.53;;;12.20;99.90;;;;;;4936884;29;20518;-73
2023/10/09 11:29:23;;;;;;;4.70;3.67;;;12.10;99.90;;;;;;4937415;29;20469;-73
2023/10/09 11:32:05;;;;;;;2.97;2.70;;;12.20;99.90;;;;;;4936303;29;20488;-73
2023/10/09 11:34:31;;;;;;;2.63;2.53;;;12.20;99.90;;;;;;4935839;29;20499;-73
2023/10/09 11:37:00;;;;;;;3.57;2.80;;;12.20;99.90;;;;;;4936147;29;20496;-73
2023/10/09 11:39:32;;;;;;;2.70;2.50;;;12.20;99.90;;;;;;4935581;29;20492;-72
2023/10/09 11:42:06;;;;;;;2.20;2.10;;;12.20;99.90;;;;;;4935638;29;20477;-73
2023/10/09 11:44:39;;;;;;;1.87;1.73;;;12.20;99.90;;;;;;4935325;29;20466;-72
2023/10/09 11:47:25;;;;;;;2.73;2.63;;;12.20;99.90;;;;;;4935530;29;20488;-72
2023/10/09 11:50:02;;;;;;;1.93;1.93;;;12.30;99.90;;;;;;4935992;29;20524;-73
2023/10/09 11:52:38;;;;;;;1.33;1.33;;;12.30;99.90;;;;;;4935381;29;20477;-72
2023/10/09 11:55:06;;;;;;;1.50;1.50;;;12.30;99.90;;;;;;4935499;29;20568;-72
2023/10/09 11:57:34;;;;;;;1.50;1.50;;;12.40;99.90;;;;;;4935359;29;20577;-72
2023/10/09 12:00:10;;;;;;;1.90;1.80;;;12.40;99.90;;;;;;4935173;29;20480;-72
2023/10/09 12:02:43;;;;;;;1.23;1.23;;;12.40;99.90;;;;;;4935099;29;20465;-72
2023/10/09 12:05:16;;;;;;;3.27;3.07;;;12.50;99.90;;;;;;4934846;29;20498;-72
2023/10/09 12:07:44;;;;;;;2.20;2.20;;;12.40;99.90;;;;;;4934971;29;20493;-72
2023/10/09 12:10:13;;;;;;;2.07;1.97;;;12.40;99.90;;;;;;4934955;29;20834;-72
2023/10/09 12:12:40;;;;;;;1.60;1.60;;;12.40;99.90;;;;;;4935089;29;20520;-73
2023/10/09 12:15:13;;;;;;;1.90;1.80;;;12.30;99.90;;;;;;4935322;29;20466;-72
2023/10/09 12:17:44;;;;;;;1.13;1.13;;;12.40;99.90;;;;;;4935375;29;20529;-72
2023/10/09 12:20:14;;;;;;;5.17;4.90;;;12.40;99.90;;;;;;4934528;29;20465;-72
2023/10/09 12:22:41;;;;;;;3.90;3.70;;;12.40;99.90;;;;;;4935132;29;20832;-72
2023/10/09 12:25:09;;;;;;;3.40;3.30;;;12.40;99.90;;;;;;4934556;29;20533;-73
2023/10/09 12:27:37;;;;;;;2.80;2.70;;;12.40;99.90;;;;;;4934832;29;20481;-72
2023/10/09 12:30:05;;;;;;;2.10;2.10;;;12.40;99.90;;;;;;4934255;29;20469;-71
2023/10/09 12:32:36;;;;;;;7.87;7.23;;;12.40;99.90;;;;;;4934263;29;20461;-72
2023/10/09 12:35:03;;;;;;;8.63;6.70;;;12.40;99.90;;;;;;4935265;29;21025;-71
2023/10/09 12:37:31;;;;;;;19.60;12.40;;;12.40;99.90;;;;;;4938146;29;20486;-72
2023/10/09 12:39:57;;;;;;;2.87;2.70;;;12.40;99.90;;;;;;4938484;29;20468;-71
2023/10/09 12:42:24;;;;;;;3.07;2.93;;;12.40;99.90;;;;;;4938465;29;20492;-73
2023/10/09 12:44:52;;;;;;;1.60;1.60;;;12.50;99.90;;;;;;4938816;29;20844;-72
2023/10/09 12:47:19;;;;;;;1.27;1.27;;;12.60;99.90;;;;;;4938686;29;20505;-71
2023/10/09 12:49:46;;;;;;;2.00;1.90;;;12.60;99.90;;;;;;4938897;29;20493;-72
2023/10/09 12:52:15;;;;;;;1.63;1.63;;;12.60;99.90;;;;;;4938795;29;20492;-73
2023/10/09 12:54:42;;;;;;;2.10;2.10;;;12.70;99.90;;;;;;4931185;29;20461;-73
2023/10/09 12:57:13;;;;;;;2.00;1.40;;;12.70;99.90;;;;;;4931001;29;21001;-71
2023/10/09 12:59:43;;;;;;;1.90;1.90;;;12.80;99.90;;;;;;4931891;29;20901;-72
2023/10/09 13:02:13;;;;;;;2.37;2.37;;;12.90;99.90;;;;;;4938925;29;20787;-72
2023/10/09 13:04:42;;;;;;;2.73;2.20;;;12.90;99.90;;;;;;4938558;29;20968;-72
2023/10/09 13:07:09;;;;;;;1.40;1.40;;;13.00;99.90;;;;;;4938475;29;20648;-72
2023/10/09 13:09:42;;;;;;;9.60;6.47;;;13.00;99.90;;;;;;4939243;29;20521;-72
2023/10/09 13:12:09;;;;;;;22.70;12.70;;;13.00;99.90;;;;;;4938583;29;20469;-72
2023/10/09 13:14:35;;;;;;;4.73;3.80;;;13.10;99.90;;;;;;4938229;29;20840;-72
2023/10/09 13:17:08;;;;;;;1.27;1.27;;;13.10;99.90;;;;;;4938524;29;20496;-72
2023/10/09 13:19:36;;;;;;;1.30;1.30;;;13.00;99.90;;;;;;4939981;29;20836;-72
2023/10/09 13:22:03;;;;;;;2.03;2.03;;;13.00;99.90;;;;;;4938601;29;20477;-72
2023/10/09 13:24:30;;;;;;;1.63;1.60;;;13.00;99.90;;;;;;4937939;29;20505;-72
2023/10/09 13:26:58;;;;;;;1.60;1.60;;;13.00;99.90;;;;;;4937585;29;20511;-72
2023/10/09 13:29:25;;;;;;;1.47;1.47;;;13.00;99.90;;;;;;4938256;29;20492;-72
2023/10/09 13:31:57;;;;;;;1.87;1.87;;;13.00;99.90;;;;;;4938046;29;20472;-72
2023/10/09 13:34:27;;;;;;;1.80;1.80;;;13.10;99.90;;;;;;4937846;29;20551;-72
2023/10/09 13:36:58;;;;;;;2.10;2.10;;;13.10;99.90;;;;;;4937714;29;20529;-72
2023/10/09 13:39:26;;;;;;;1.87;1.87;;;13.10;99.90;;;;;;4929348;29;20506;-72
2023/10/09 13:41:57;;;;;;;1.70;1.63;;;13.10;99.90;;;;;;4937354;29;20556;-73
2023/10/09 13:44:26;;;;;;;2.50;2.50;;;13.10;99.90;;;;;;4935424;29;20959;-74
2023/10/09 13:46:53;;;;;;;1.87;1.87;;;13.10;99.90;;;;;;4931491;29;20507;-72
2023/10/09 13:49:22;;;;;;;1.83;1.80;;;13.20;99.90;;;;;;4937258;29;20461;-72
2023/10/09 13:51:49;;;;;;;2.63;2.10;;;13.30;99.90;;;;;;4937715;29;20878;-72
2023/10/09 13:54:21;;;;;;;2.03;1.93;;;13.40;99.90;;;;;;4937957;29;20466;-72
2023/10/09 13:56:52;;;;;;;1.27;1.27;;;13.40;99.90;;;;;;4937553;29;20474;-72
2023/10/09 13:59:20;;;;;;;1.87;1.87;;;13.40;99.90;;;;;;4937536;29;20465;-72
2023/10/09 14:01:48;;;;;;;1.73;1.73;;;13.40;99.90;;;;;;4937251;29;20470;-72
2023/10/09 14:04:18;;;;;;;2.03;2.03;;;13.50;99.90;;;;;;4936903;29;20478;-72
2023/10/09 14:06:45;;;;;;;2.20;2.20;;;13.60;99.90;;;;;;4937158;29;20521;-72
2023/10/09 14:09:27;;;;;;;2.50;2.40;;;13.60;99.90;;;;;;4937289;29;20476;-72
2023/10/09 14:12:05;;;;;;;2.57;2.47;;;13.60;99.90;;;;;;4937353;29;20466;-72
2023/10/09 14:14:34;;;;;;;2.60;2.50;;;13.60;99.90;;;;;;4937030;29;20834;-72
2023/10/09 14:17:01;;;;;;;2.60;2.50;;;13.60;99.90;;;;;;4936770;29;20495;-72
2023/10/09 14:19:33;;;;;;;2.50;2.40;;;13.60;99.90;;;;;;4936808;29;20470;-71
2023/10/09 14:21:59;;;;;;;2.10;2.00;;;13.60;99.90;;;;;;4937020;29;20466;-72
2023/10/09 14:24:32;;;;;;;2.10;2.10;;;13.60;99.90;;;;;;4929187;29;20469;-72
2023/10/09 14:27:03;;;;;;;1.50;1.50;;;13.50;99.90;;;;;;4937096;29;20590;-73
2023/10/09 14:29:30;;;;;;;2.50;2.40;;;13.60;99.90;;;;;;4936659;29;20473;-72
2023/10/09 14:32:00;;;;;;;2.03;1.93;;;13.60;99.90;;;;;;4931106;29;20498;-73
2023/10/09 14:34:32;;;;;;;2.23;2.17;;;13.60;99.90;;;;;;4935602;29;20501;-72
2023/10/09 14:37:00;;;;;;;1.97;1.97;;;13.70;99.90;;;;;;4936469;29;20485;-73
2023/10/09 14:39:27;;;;;;;2.53;2.50;;;13.70;99.90;;;;;;4936217;29;20474;-72
2023/10/09 14:41:54;;;;;;;2.37;2.33;;;13.70;99.90;;;;;;4930642;29;20466;-72
2023/10/09 14:44:23;;;;;;;1.67;1.57;;;13.70;99.90;;;;;;4934548;29;20546;-73
2023/10/09 14:46:50;;;;;;;2.90;2.80;;;13.70;99.90;;;;;;4936586;29;20494;-72
2023/10/09 14:49:21;;;;;;;6.60;5.10;;;13.70;99.90;;;;;;4936372;29;20466;-72
2023/10/09 14:51:48;;;;;;;3.60;3.40;;;13.70;99.90;;;;;;4936660;29;20557;-73
2023/10/09 14:54:17;;;;;;;3.07;2.93;;;13.70;99.90;;;;;;4936326;29;20470;-73
2023/10/09 14:56:45;;;;;;;4.17;3.93;;;13.70;99.90;;;;;;4936328;29;20462;-73
2023/10/09 14:59:12;;;;;;;5.67;5.27;;;13.80;99.90;;;;;;4927623;29;20514;-73
2023/10/09 15:01:40;;;;;;;3.93;3.63;;;13.70;99.90;;;;;;4936768;29;20474;-72
2023/10/09 15:04:10;;;;;;;3.23;3.13;;;13.80;99.90;;;;;;4936861;29;20848;-72
2023/10/09 15:06:38;;;;;;;5.93;5.27;;;13.80;99.90;;;;;;4935988;29;20574;-71
2023/10/09 15:09:09;;;;;;;4.50;4.10;;;13.80;99.90;;;;;;4935859;29;20938;-72
2023/10/09 15:11:38;;;;;;;5.20;4.47;;;13.80;99.90;;;;;;4936423;29;20488;-72
2023/10/09 15:14:06;;;;;;;3.17;3.07;;;13.90;99.90;;;;;;4936457;29;20500;-72
2023/10/09 15:16:33;;;;;;;3.40;3.10;;;13.90;99.90;;;;;;4936326;29;20466;-71
2023/10/09 15:19:03;;;;;;;3.60;3.30;;;13.80;99.90;;;;;;4935778;29;20474;-72
2023/10/09 15:21:32;;;;;;;3.87;3.60;;;13.80;99.90;;;;;;4935772;29;20522;-72
2023/10/09 15:23:59;;;;;;;4.17;3.90;;;13.90;99.90;;;;;;4935468;29;20520;-72
2023/10/09 15:26:32;;;;;;;5.97;5.47;;;13.90;99.90;;;;;;4935910;29;20526;-73
2023/10/09 15:29:03;;;;;;;5.37;4.87;;;13.90;99.90;;;;;;4936018;29;20472;-73
2023/10/09 15:31:32;;;;;;;4.53;4.20;;;13.90;99.90;;;;;;4933823;29;20467;-73
2023/10/09 15:33:59;;;;;;;5.43;4.93;;;13.90;99.90;;;;;;4931001;29;21015;-72
2023/10/09 15:36:28;;;;;;;4.87;4.67;;;14.00;99.90;;;;;;4935767;29;20469;-72
2023/10/09 15:38:59;;;;;;;4.10;3.90;;;14.00;99.90;;;;;;4935383;29;20539;-73
2023/10/09 15:41:29;;;;;;;6.70;6.20;;;14.00;99.90;;;;;;4935489;29;20470;-73
2023/10/09 15:43:58;;;;;;;4.87;4.57;;;14.00;99.90;;;;;;4935562;29;20465;-73
2023/10/09 15:46:26;;;;;;;2.97;2.87;;;14.00;99.90;;;;;;4935027;29;20494;-73
2023/10/09 15:48:55;;;;;;;4.67;3.90;;;14.00;99.90;;;;;;4935591;29;20493;-72
2023/10/09 15:51:22;;;;;;;3.20;3.00;;;14.00;99.90;;;;;;4935428;29;20472;-72
2023/10/09 15:53:51;;;;;;;3.33;3.23;;;14.00;99.90;;;;;;4935256;29;20608;-72
2023/10/09 15:56:18;;;;;;;2.90;2.73;;;14.00;99.90;;;;;;4935224;29;20465;-72
2023/10/09 15:58:45;;;;;;;3.73;3.57;;;14.00;99.90;;;;;;4934801;29;20550;-72
2023/10/09 16:01:13;;;;;;;4.40;4.20;;;14.00;99.90;;;;;;4934805;29;20832;-71
2023/10/09 16:03:41;;;;;;;7.67;7.20;;;14.00;99.90;;;;;;4934943;29;20466;-72
2023/10/09 16:06:11;;;;;;;9.77;7.30;;;14.00;99.90;;;;;;4934950;29;20494;-72
2023/10/09 16:08:38;;;;;;;6.37;5.87;;;14.10;99.90;;;;;;4934383;29;20493;-72
2023/10/09 16:11:07;;;;;;;9.07;8.33;;;14.10;99.90;;;;;;4934857;29;20470;-72
2023/10/09 16:13:34;;;;;;;6.90;6.30;;;14.10;99.90;;;;;;4934440;29;20825;-72
2023/10/09 16:16:05;;;;;;;6.43;5.93;;;14.10;99.90;;;;;;4934611;29;20788;-72
2023/10/09 16:18:35;;;;;;;6.70;6.10;;;14.10;99.90;;;;;;4971724;23;20499;-71
2023/10/09 16:21:03;;;;;;;6.30;5.90;;;14.10;99.90;;;;;;4954018;28;20964;-70
2023/10/09 16:23:31;;;;;;;5.83;5.43;;;14.10;99.90;;;;;;4953830;28;20456;-71
2023/10/09 16:25:59;;;;;;;5.73;5.33;;;14.10;99.90;;;;;;4953795;28;21011;-70
2023/10/09 16:28:27;;;;;;;5.53;5.10;;;14.20;99.90;;;;;;4945798;28;20551;-70
2023/10/09 16:30:56;;;;;;;5.17;4.87;;;14.10;99.90;;;;;;4953988;28;20501;-72
2023/10/09 16:33:24;;;;;;;5.10;4.70;;;14.10;99.90;;;;;;4953904;28;20470;-71
2023/10/09 16:35:54;;;;;;;5.43;5.00;;;14.10;99.90;;;;;;4953705;28;20464;-71
2023/10/09 16:38:22;;;;;;;5.47;5.10;;;14.10;99.90;;;;;;4953627;28;20902;-69
2023/10/09 16:40:54;;;;;;;5.47;5.10;;;14.10;99.90;;;;;;4953675;28;20468;-70
2023/10/09 16:43:25;;;;;;;5.73;5.43;;;14.10;99.90;;;;;;4953705;28;20474;-70
2023/10/09 16:45:56;;;;;;;5.77;5.47;;;14.10;99.90;;;;;;4953727;28;20560;-70
2023/10/09 16:48:27;;;;;;;7.40;6.80;;;14.10;99.90;;;;;;4953707;28;20575;-70
2023/10/09 16:50:55;;;;;;;7.57;6.87;;;14.10;99.90;;;;;;4953563;28;20473;-71
2023/10/09 16:53:22;;;;;;;6.97;6.30;;;14.10;99.90;;;;;;4954337;28;20475;-70
2023/10/09 16:55:49;;;;;;;8.27;7.57;;;14.10;99.90;;;;;;4954038;28;20588;-70
2023/10/09 16:58:16;;;;;;;7.80;7.20;;;14.10;99.90;;;;;;4953724;28;20481;-70
2023/10/09 17:00:46;;;;;;;7.60;7.00;;;14.10;99.90;;;;;;4953494;28;20473;-70
2023/10/09 17:03:14;;;;;;;8.27;7.60;;;14.20;99.90;;;;;;4953550;28;20891;-70
2023/10/09 17:05:55;;;;;;;9.73;8.73;;;14.10;99.90;;;;;;4953396;28;20473;-70
2023/10/09 17:08:22;;;;;;;8.87;8.20;;;14.20;99.90;;;;;;4953644;28;20596;-70
2023/10/09 17:10:51;;;;;;;9.57;8.70;;;14.20;99.90;;;;;;4953523;28;20474;-70
2023/10/09 17:13:20;;;;;;;9.70;8.90;;;14.20;99.90;;;;;;4953499;28;20469;-70
2023/10/09 17:15:52;;;;;;;6.53;5.90;;;14.20;99.90;;;;;;4953490;28;20465;-71
2023/10/09 17:18:22;;;;;;;6.87;6.37;;;14.20;99.90;;;;;;4953300;28;20493;-70
2023/10/09 17:20:49;;;;;;;5.53;5.13;;;14.30;99.90;;;;;;4954241;28;20457;-70
2023/10/09 17:23:16;;;;;;;6.60;6.07;;;14.30;99.90;;;;;;4957216;28;20476;-70
2023/10/09 17:25:44;;;;;;;6.57;5.77;;;14.30;99.90;;;;;;4956817;28;20498;-70
2023/10/09 17:28:14;;;;;;;8.03;4.90;;;14.40;99.90;;;;;;4956914;28;20964;-70
2023/10/09 17:30:41;;;;;;;4.77;4.30;;;14.40;99.90;;;;;;4956730;28;20469;-70
2023/10/09 17:33:08;;;;;;;4.63;2.93;;;14.50;99.90;;;;;;4956997;28;20935;-70
2023/10/09 17:35:36;;;;;;;3.80;3.70;;;14.40;99.90;;;;;;4956509;28;20466;-70
2023/10/09 17:38:04;;;;;;;4.27;3.87;;;14.50;99.90;;;;;;4956998;28;20863;-70
2023/10/09 17:40:31;;;;;;;4.30;3.90;;;14.50;99.90;;;;;;4956573;28;20948;-70
2023/10/09 17:42:58;;;;;;;4.90;4.40;;;14.50;99.90;;;;;;4956598;28;20984;-70
2023/10/09 17:45:25;;;;;;;4.00;3.60;;;14.50;99.90;;;;;;4956293;28;20471;-70
2023/10/09 17:47:52;;;;;;;6.00;5.00;;;14.50;99.90;;;;;;4957096;28;20502;-70
2023/10/09 17:50:21;;;;;;;9.60;6.00;;;14.60;99.90;;;;;;4956716;28;20664;-70
2023/10/09 17:52:49;;;;;;;14.50;8.40;;;14.60;99.90;;;;;;4956620;28;20469;-70
2023/10/09 17:55:17;;;;;;;15.17;8.17;;;14.60;99.90;;;;;;4956370;28;20570;-70
2023/10/09 17:57:44;;;;;;;7.13;5.40;;;14.60;99.90;;;;;;4956223;28;20482;-71
2023/10/09 18:00:21;;;;;;;8.50;3.30;;;14.60;99.90;;;;;;4956693;28;20586;-71
2023/10/09 18:02:48;;;;;;;2.47;2.27;;;14.60;99.90;;;;;;4950411;29;20473;-70
2023/10/09 18:05:15;;;;;;;4.87;2.97;;;14.70;99.90;;;;;;4956336;28;20842;-70